Time;durP1;ratioP1;P1;durP2;ratioP2;P2;SDS_P1;SDS_P2;PMS_P1;PMS_P2;Temp;Humidity;BMP_temperature;BMP_pressure;BME280_temperature;BME280_humidity;BME280_pressure;Samples;Min_cycle;Max_cycle;Signal;HPM_P1;HPM_P2
2023/08/01 00:01:20;;;;;;;0.10;0.10;;;;;;;23.90;58.90;99677.88;5038338;28;20032;-74
2023/08/01 00:03:45;;;;;;;1.30;0.10;;;;;;;23.93;58.56;99710.19;5038918;28;20037;-75
2023/08/01 00:06:13;;;;;;;2.38;0.10;;;;;;;23.96;58.29;99698.78;5055289;28;20025;-75
2023/08/01 00:08:38;;;;;;;0.00;0.00;;;;;;;23.94;58.71;99673.56;5038533;28;20037;-75
2023/08/01 00:11:04;;;;;;;0.00;0.00;;;;;;;23.94;58.96;99670.84;5056566;28;20561;-74
2023/08/01 00:13:29;;;;;;;0.00;0.00;;;;;;;23.93;58.61;99682.84;5055178;28;20114;-77
2023/08/01 00:15:55;;;;;;;0.20;0.17;;;;;;;23.93;58.78;99691.88;5056144;28;20463;-75
2023/08/01 00:18:20;;;;;;;0.45;0.10;;;;;;;23.92;58.62;99675.72;5057453;28;20511;-76
2023/08/01 00:20:45;;;;;;;0.32;0.00;;;;;;;23.93;58.25;99685.59;5041364;28;20045;-76
2023/08/01 00:23:11;;;;;;;0.10;0.05;;;;;;;23.94;58.90;99679.88;5041056;28;20028;-76
2023/08/01 00:25:36;;;;;;;0.10;0.00;;;;;;;23.95;58.76;99672.50;5040152;28;20040;-75
2023/08/01 00:28:02;;;;;;;0.47;0.10;;;;;;;23.94;58.91;99679.03;5055005;28;20060;-74
2023/08/01 00:30:27;;;;;;;0.20;0.10;;;;;;;23.95;58.76;99675.25;5037823;28;20083;-73
2023/08/01 00:32:52;;;;;;;0.32;0.10;;;;;;;23.95;58.61;99672.50;5054056;28;20091;-75
2023/08/01 00:35:18;;;;;;;0.20;0.00;;;;;;;23.92;58.96;99684.78;5054068;28;20422;-75
2023/08/01 00:37:43;;;;;;;0.10;0.10;;;;;;;23.92;58.75;99686.69;5054011;28;20045;-74
2023/08/01 00:40:09;;;;;;;0.90;0.10;;;;;;;23.92;58.46;99681.19;5054265;28;20415;-75
2023/08/01 00:42:37;;;;;;;0.38;0.38;;;;;;;23.91;58.55;99683.09;5055254;28;20033;-75
2023/08/01 00:45:03;;;;;;;0.05;0.05;;;;;;;23.88;58.59;99680.00;5055362;28;20488;-74
2023/08/01 00:47:29;;;;;;;0.35;0.10;;;;;;;23.83;58.98;99683.50;5054735;28;20407;-74
2023/08/01 00:49:54;;;;;;;0.10;0.10;;;;;;;23.78;58.68;99673.25;5054453;28;20058;-74
2023/08/01 00:52:20;;;;;;;2.85;0.10;;;;;;;23.78;58.84;99659.59;5037455;28;20029;-72
2023/08/01 00:54:47;;;;;;;0.28;0.28;;;;;;;23.75;58.21;99643.69;5054183;28;20377;-73
2023/08/01 00:57:13;;;;;;;2.15;0.28;;;;;;;23.78;58.83;99658.78;5053982;28;20025;-73
2023/08/01 00:59:39;;;;;;;0.75;0.52;;;;;;;23.75;58.83;99649.16;5053835;28;20040;-73
2023/08/01 01:02:04;;;;;;;1.13;0.20;;;;;;;23.74;58.55;99641.19;5053742;28;20556;-73
2023/08/01 01:04:30;;;;;;;0.25;0.25;;;;;;;23.73;58.66;99656.75;5036870;28;20053;-73
2023/08/01 01:07:06;;;;;;;2.50;0.38;;;;;;;23.72;58.64;99633.25;5053449;28;20035;-73
2023/08/01 01:09:32;;;;;;;1.17;0.30;;;;;;;23.72;58.98;99644.19;5036480;28;20033;-73
2023/08/01 01:11:58;;;;;;;0.55;0.22;;;;;;;23.74;58.45;99646.66;5054082;28;20051;-72
2023/08/01 01:14:27;;;;;;;0.20;0.20;;;;;;;23.75;58.38;99653.78;5054121;28;20037;-72
2023/08/01 01:16:53;;;;;;;0.43;0.43;;;;;;;23.76;58.01;99650.81;5053106;28;20036;-74
2023/08/01 01:19:18;;;;;;;2.83;0.40;;;;;;;23.75;58.43;99656.53;5054338;28;20029;-72
2023/08/01 01:21:44;;;;;;;0.65;0.30;;;;;;;23.76;58.10;99667.22;5054512;28;20029;-71
2023/08/01 01:24:10;;;;;;;0.98;0.40;;;;;;;23.73;58.43;99670.44;5052789;28;20032;-71
2023/08/01 01:26:36;;;;;;;0.40;0.30;;;;;;;23.74;58.05;99663.91;5052795;28;20033;-71
2023/08/01 01:29:05;;;;;;;0.60;0.30;;;;;;;23.67;58.39;99657.72;5053277;28;20043;-71
2023/08/01 01:31:32;;;;;;;2.05;0.40;;;;;;;23.67;58.00;99657.72;5052363;28;20052;-71
2023/08/01 01:33:58;;;;;;;2.33;0.45;;;;;;;23.67;57.98;99648.72;5053615;28;20033;-71
2023/08/01 01:36:23;;;;;;;1.17;0.47;;;;;;;23.69;58.46;99638.34;5052765;28;20033;-71
2023/08/01 01:38:48;;;;;;;0.80;0.70;;;;;;;23.70;58.42;99650.97;5053600;28;20075;-72
2023/08/01 01:41:14;;;;;;;1.60;0.40;;;;;;;23.68;58.46;99647.63;5052615;28;20413;-71
2023/08/01 01:43:40;;;;;;;1.90;0.65;;;;;;;23.66;57.58;99658.81;5052043;28;20036;-72
2023/08/01 01:46:06;;;;;;;1.80;1.33;;;;;;;23.64;57.73;99660.13;5051935;28;20416;-72
2023/08/01 01:48:31;;;;;;;1.05;0.55;;;;;;;23.64;58.00;99671.91;5052392;28;20037;-72
2023/08/01 01:50:57;;;;;;;2.15;0.88;;;;;;;23.60;57.59;99662.50;5051865;28;20037;-71
2023/08/01 01:53:22;;;;;;;3.60;0.60;;;;;;;23.57;57.50;99651.22;5034411;28;20033;-70
2023/08/01 01:55:47;;;;;;;2.85;0.57;;;;;;;23.58;57.57;99661.94;5053025;28;20450;-71
2023/08/01 01:58:13;;;;;;;1.10;0.60;;;;;;;23.58;58.04;99659.19;5051888;28;20025;-71
2023/08/01 02:00:38;;;;;;;1.23;0.88;;;;;;;23.60;57.56;99659.78;5035071;28;20029;-71
2023/08/01 02:03:04;;;;;;;2.13;1.00;;;;;;;23.59;57.69;99660.84;5052815;28;20512;-70
2023/08/01 02:05:29;;;;;;;2.97;0.90;;;;;;;23.57;58.01;99652.06;5051940;28;20033;-72
2023/08/01 02:07:55;;;;;;;5.15;1.58;;;;;;;23.58;57.05;99648.25;5051486;28;20045;-71
2023/08/01 02:10:20;;;;;;;2.28;1.23;;;;;;;23.55;57.40;99656.94;5051593;28;20029;-71
2023/08/01 02:12:46;;;;;;;5.20;1.50;;;;;;;23.54;57.07;99662.66;5052865;28;20352;-72
2023/08/01 02:15:11;;;;;;;2.35;1.10;;;;;;;23.52;57.39;99654.69;5051431;28;20029;-70
2023/08/01 02:17:36;;;;;;;2.33;1.10;;;;;;;23.52;56.98;99654.69;5052918;28;20074;-71
2023/08/01 02:20:03;;;;;;;5.82;2.75;;;;;;;23.49;57.10;99655.19;5051389;28;20515;-71
2023/08/01 02:22:29;;;;;;;2.70;1.35;;;;;;;23.52;56.58;99660.16;5033516;28;20041;-71
2023/08/01 02:24:54;;;;;;;2.63;1.52;;;;;;;23.54;56.49;99674.41;5051367;28;20040;-71
2023/08/01 02:27:19;;;;;;;3.03;1.58;;;;;;;23.54;56.75;99674.41;5051254;28;20033;-73
2023/08/01 02:29:45;;;;;;;2.75;1.35;;;;;;;23.55;57.06;99670.63;5051281;28;20064;-72
2023/08/01 02:32:10;;;;;;;2.58;1.63;;;;;;;23.57;57.32;99673.94;5051363;28;20032;-71
2023/08/01 02:34:36;;;;;;;2.88;1.70;;;;;;;23.58;56.55;99667.41;5051045;28;20033;-71
2023/08/01 02:37:01;;;;;;;4.28;1.90;;;;;;;23.59;56.79;99681.91;5051583;28;20033;-70
2023/08/01 02:39:26;;;;;;;5.60;2.10;;;;;;;23.57;56.89;99676.66;5034959;28;20034;-71
2023/08/01 02:41:52;;;;;;;4.25;1.90;;;;;;;23.56;56.58;99677.72;5049409;28;20055;-70
2023/08/01 02:44:17;;;;;;;3.95;1.77;;;;;;;23.54;56.31;99677.16;5055334;28;20037;-71
2023/08/01 02:46:43;;;;;;;5.60;1.50;;;;;;;23.54;56.26;99679.88;5039016;28;20489;-71
2023/08/01 02:49:08;;;;;;;4.85;2.28;;;;;;;23.52;56.16;99676.56;5039057;28;20037;-70
2023/08/01 02:51:34;;;;;;;3.15;1.45;;;;;;;23.51;56.71;99683.09;5056415;28;20426;-70
2023/08/01 02:53:59;;;;;;;5.53;2.28;;;;;;;23.49;56.13;99685.25;5056249;28;20389;-70
2023/08/01 02:56:24;;;;;;;3.63;2.20;;;;;;;23.53;55.92;99689.19;5056207;28;20120;-71
2023/08/01 02:58:51;;;;;;;3.17;1.80;;;;;;;23.54;56.42;99699.03;5055008;28;20045;-71
2023/08/01 03:01:17;;;;;;;3.75;2.30;;;;;;;23.54;55.77;99700.91;5038638;28;20033;-71
2023/08/01 03:03:42;;;;;;;11.57;2.00;;;;;;;23.52;56.34;99692.97;5056077;28;20393;-70
2023/08/01 03:06:08;;;;;;;2.95;1.98;;;;;;;23.46;55.72;99699.41;5049029;28;20036;-71
2023/08/01 03:08:33;;;;;;;3.88;1.70;;;;;;;23.42;55.57;99687.25;5037545;28;20131;-71
2023/08/01 03:10:59;;;;;;;4.75;2.28;;;;;;;23.42;55.61;99700.94;5056608;28;20036;-71
2023/08/01 03:13:24;;;;;;;7.18;2.55;;;;;;;23.43;56.03;99709.97;5038559;28;20029;-69
2023/08/01 03:15:50;;;;;;;2.95;2.10;;;;;;;23.38;55.75;99707.97;5055290;28;20040;-71
2023/08/01 03:18:16;;;;;;;6.88;2.70;;;;;;;23.36;55.63;99704.63;5038587;28;20029;-70
2023/08/01 03:20:41;;;;;;;3.78;2.08;;;;;;;23.32;56.17;99703.44;5055267;28;20151;-70
2023/08/01 03:23:06;;;;;;;5.32;1.77;;;;;;;23.29;55.92;99703.06;5055235;28;20400;-70
2023/08/01 03:25:32;;;;;;;4.65;2.08;;;;;;;23.27;56.00;99707.94;5055213;28;20035;-72
2023/08/01 03:27:58;;;;;;;5.57;2.22;;;;;;;23.29;55.53;99714.84;5054858;28;20029;-72
2023/08/01 03:30:24;;;;;;;4.05;2.47;;;;;;;23.28;56.26;99713.19;5056288;28;20532;-71
2023/08/01 03:32:50;;;;;;;4.22;2.33;;;;;;;23.26;55.71;99709.84;5055012;28;20040;-71
2023/08/01 03:35:15;;;;;;;3.03;2.33;;;;;;;23.26;56.09;99712.56;5038367;28;20443;-71
2023/08/01 03:37:41;;;;;;;3.08;1.70;;;;;;;23.25;55.58;99713.66;5056023;28;20026;-72
2023/08/01 03:40:10;;;;;;;7.82;1.77;;;;;;;23.24;56.33;99722.91;5055718;28;20036;-71
2023/08/01 03:42:36;;;;;;;5.03;2.00;;;;;;;23.22;55.67;99710.56;5055078;28;20115;-70
2023/08/01 03:45:04;;;;;;;6.10;2.85;;;;;;;23.19;55.20;99714.63;5054330;28;20036;-70
2023/08/01 03:47:29;;;;;;;9.55;2.28;;;;;;;23.16;55.74;99707.72;5055122;28;20029;-70
2023/08/01 03:49:54;;;;;;;4.80;1.80;;;;;;;23.16;55.79;99709.63;5055596;28;20033;-71
2023/08/01 03:52:20;;;;;;;5.55;1.95;;;;;;;23.20;55.74;99708.06;5037683;28;20116;-69
2023/08/01 03:54:45;;;;;;;2.78;2.10;;;;;;;23.21;55.37;99717.94;5055770;28;20508;-70
2023/08/01 03:57:11;;;;;;;3.10;1.83;;;;;;;23.19;55.62;99715.44;5055512;28;20029;-71
2023/08/01 03:59:36;;;;;;;4.95;1.92;;;;;;;23.19;55.46;99720.91;5054407;28;20123;-70
2023/08/01 04:02:02;;;;;;;6.07;2.05;;;;;;;23.21;56.17;99726.13;5055444;28;20045;-71
2023/08/01 04:04:29;;;;;;;4.43;2.15;;;;;;;23.16;55.54;99715.09;5053954;28;20037;-70
2023/08/01 04:06:55;;;;;;;10.63;3.22;;;;;;;23.17;55.69;99716.75;5054959;28;20049;-71
2023/08/01 04:09:20;;;;;;;5.75;2.15;;;;;;;23.16;55.63;99720.56;5055010;28;20116;-70
2023/08/01 04:11:45;;;;;;;5.95;2.17;;;;;;;23.15;55.56;99721.59;5053969;28;20096;-69
2023/08/01 04:14:11;;;;;;;9.77;2.38;;;;;;;23.13;55.68;99710.09;5054679;28;20135;-71
2023/08/01 04:16:36;;;;;;;8.38;2.30;;;;;;;23.13;55.71;99690.97;5053305;28;20036;-71
2023/08/01 04:19:02;;;;;;;5.10;2.55;;;;;;;23.13;56.12;99694.53;5053586;28;20603;-71
2023/08/01 04:21:27;;;;;;;4.72;2.00;;;;;;;23.13;55.57;99688.22;5053440;28;20086;-70
2023/08/01 04:23:52;;;;;;;3.33;2.30;;;;;;;23.14;55.33;99689.91;5036743;28;20029;-71
2023/08/01 04:26:18;;;;;;;3.80;2.22;;;;;;;23.13;55.08;99690.97;5054802;28;20029;-71
2023/08/01 04:28:43;;;;;;;3.33;1.88;;;;;;;23.14;55.26;99700.84;5053545;28;20495;-71
2023/08/01 04:31:08;;;;;;;5.55;2.13;;;;;;;23.13;55.60;99704.63;5055100;28;20124;-71
2023/08/01 04:33:34;;;;;;;5.30;2.22;;;;;;;23.12;55.43;99711.16;5053337;28;20033;-70
2023/08/01 04:36:00;;;;;;;3.90;2.13;;;;;;;23.12;55.24;99711.16;5054721;28;20044;-71
2023/08/01 04:38:25;;;;;;;5.25;2.45;;;;;;;23.11;54.84;99714.97;5054724;28;20071;-70
2023/08/01 04:40:50;;;;;;;4.03;1.95;;;;;;;23.09;55.07;99715.19;5054574;28;20557;-71
2023/08/01 04:43:16;;;;;;;6.53;2.17;;;;;;;23.09;55.56;99711.63;5054298;28;20036;-70
2023/08/01 04:45:41;;;;;;;7.82;2.47;;;;;;;23.11;55.61;99717.72;5053137;28;20029;-71
2023/08/01 04:48:06;;;;;;;6.00;2.40;;;;;;;23.11;54.84;99714.97;5052906;28;20029;-71
2023/08/01 04:50:32;;;;;;;5.90;2.70;;;;;;;23.13;55.23;99718.28;5053200;28;20033;-71
2023/08/01 04:52:57;;;;;;;4.88;2.13;;;;;;;23.16;55.23;99728.75;5053947;28;20531;-71
2023/08/01 04:55:23;;;;;;;5.78;2.38;;;;;;;23.21;55.15;99734.31;5052928;28;20029;-71
2023/08/01 04:57:48;;;;;;;15.13;3.50;;;;;;;23.22;55.27;99736.00;5036048;28;20048;-71
2023/08/01 05:00:15;;;;;;;4.22;2.30;;;;;;;23.25;54.87;99735.53;5054146;28;20039;-71
2023/08/01 05:02:40;;;;;;;6.80;2.20;;;;;;;23.27;54.84;99740.75;5051109;28;20474;-70
2023/08/01 05:05:06;;;;;;;6.00;2.72;;;;;;;23.31;55.30;99734.56;5052377;28;20051;-70
2023/08/01 05:07:32;;;;;;;4.88;2.35;;;;;;;23.33;54.90;99732.44;5043096;28;20033;-72
2023/08/01 05:09:57;;;;;;;6.57;2.33;;;;;;;23.37;54.47;99732.75;5068795;28;20039;-70
2023/08/01 05:12:25;;;;;;;5.03;2.33;;;;;;;23.38;54.90;99735.31;5053899;28;20477;-71
2023/08/01 05:14:50;;;;;;;7.93;2.20;;;;;;;23.38;54.98;99729.84;5052841;28;20021;-71
2023/08/01 05:17:16;;;;;;;8.65;2.58;;;;;;;23.43;54.88;99729.94;5051387;28;20435;-71
2023/08/01 05:19:42;;;;;;;8.38;2.67;;;;;;;23.50;54.71;99733.41;5052767;28;20020;-71
2023/08/01 05:22:07;;;;;;;7.45;2.22;;;;;;;23.51;54.70;99729.56;5053825;28;20029;-71
2023/08/01 05:24:33;;;;;;;4.45;2.67;;;;;;;23.59;54.55;99736.59;5051317;28;20052;-70
2023/08/01 05:26:58;;;;;;;8.63;2.67;;;;;;;23.70;54.19;99736.56;5036004;28;20476;-71
2023/08/01 05:29:24;;;;;;;3.97;2.53;;;;;;;23.77;54.21;99740.00;5053840;28;20033;-72
2023/08/01 05:31:49;;;;;;;10.60;2.92;;;;;;;23.86;53.87;99742.34;5034418;28;20028;-70
2023/08/01 05:34:14;;;;;;;4.70;2.67;;;;;;;23.86;53.95;99736.88;5051940;28;20032;-71
2023/08/01 05:36:40;;;;;;;8.07;2.50;;;;;;;23.90;54.38;99746.28;5053390;28;20524;-72
2023/08/01 05:39:05;;;;;;;9.98;2.55;;;;;;;23.91;54.04;99750.66;5051934;28;20025;-71
2023/08/01 05:41:30;;;;;;;10.35;3.53;;;;;;;23.87;54.51;99757.72;5051840;28;20013;-71
2023/08/01 05:43:57;;;;;;;9.05;3.78;;;;;;;23.79;54.57;99764.38;5052982;28;20025;-71
2023/08/01 05:46:22;;;;;;;7.93;3.03;;;;;;;23.74;54.28;99754.16;5052864;28;20024;-71
2023/08/01 05:48:47;;;;;;;8.98;3.10;;;;;;;23.76;54.13;99764.84;5051836;28;20025;-71
2023/08/01 05:51:13;;;;;;;6.00;3.15;;;;;;;23.71;54.57;99757.38;5051637;28;20033;-71
2023/08/01 05:53:38;;;;;;;8.23;3.28;;;;;;;23.74;53.90;99761.53;5052767;28;20040;-68
2023/08/01 05:56:04;;;;;;;8.00;4.28;;;;;;;23.77;54.31;99767.34;5018478;28;20041;-72
2023/08/01 05:58:30;;;;;;;7.22;3.67;;;;;;;23.78;53.98;99763.53;5018449;28;20048;-70
2023/08/01 06:00:56;;;;;;;5.82;3.38;;;;;;;23.80;53.88;99760.56;5051592;28;20484;-70
2023/08/01 06:03:21;;;;;;;9.60;3.50;;;;;;;23.90;53.75;99766.25;5050576;28;20136;-70
2023/08/01 06:05:46;;;;;;;6.80;2.90;;;;;;;24.05;53.96;99768.47;5050672;28;20512;-70
2023/08/01 06:08:13;;;;;;;6.93;3.28;;;;;;;24.32;53.43;99764.94;5050584;28;20029;-70
2023/08/01 06:10:38;;;;;;;7.25;3.00;;;;;;;24.68;52.50;99751.94;5050443;28;20037;-69
2023/08/01 06:13:04;;;;;;;7.07;2.80;;;;;;;24.90;53.09;99752.88;5051850;28;20061;-70
2023/08/01 06:15:29;;;;;;;8.75;3.42;;;;;;;25.16;52.67;99748.63;5033411;28;20080;-70
2023/08/01 06:17:54;;;;;;;6.45;3.20;;;;;;;25.21;52.37;99762.44;5049793;28;20493;-69
2023/08/01 06:20:20;;;;;;;8.50;3.10;;;;;;;25.36;52.13;99765.41;5034003;28;20044;-71
2023/08/01 06:22:45;;;;;;;8.38;2.42;;;;;;;25.32;52.12;99767.00;5050399;28;20049;-70
2023/08/01 06:25:11;;;;;;;9.05;2.75;;;;;;;25.25;52.45;99775.38;5050314;28;20040;-70
2023/08/01 06:27:37;;;;;;;4.97;3.17;;;;;;;25.20;52.11;99760.75;5050286;28;20514;-70
2023/08/01 06:30:02;;;;;;;6.45;2.67;;;;;;;25.19;52.13;99781.03;5050407;28;20040;-69
2023/08/01 06:32:28;;;;;;;6.60;2.80;;;;;;;25.39;52.01;99767.63;5050377;28;20033;-70
2023/08/01 06:34:53;;;;;;;4.68;2.67;;;;;;;25.27;51.73;99761.41;5033703;28;20515;-69
2023/08/01 06:37:19;;;;;;;9.90;2.30;;;;;;;25.19;51.92;99765.41;5050199;28;20029;-70
2023/08/01 06:39:44;;;;;;;9.73;3.28;;;;;;;25.12;51.80;99775.72;5050332;28;20025;-70
2023/08/01 06:42:10;;;;;;;10.25;2.38;;;;;;;25.10;51.95;99777.88;5051614;28;20526;-69
2023/08/01 06:44:36;;;;;;;10.50;2.67;;;;;;;25.29;51.75;99775.72;5051254;28;20033;-70
2023/08/01 06:47:01;;;;;;;6.00;2.10;;;;;;;25.35;51.48;99778.28;5049760;28;20029;-70
2023/08/01 06:49:27;;;;;;;8.90;2.75;;;;;;;25.60;51.00;99777.03;5049854;28;20091;-71
2023/08/01 06:51:52;;;;;;;4.93;2.60;;;;;;;25.87;51.10;99783.44;5050053;28;20469;-69
2023/08/01 06:54:18;;;;;;;6.15;2.25;;;;;;;25.78;51.01;99780.31;5050093;28;20116;-70
2023/08/01 06:56:47;;;;;;;8.38;2.85;;;;;;;25.98;50.79;99779.75;5049948;28;20033;-70
2023/08/01 06:59:16;;;;;;;7.07;2.60;;;;;;;25.96;51.21;99774.50;5049909;28;20052;-71
2023/08/01 07:04:10;;;;;;;6.28;2.50;;;;;;;26.34;49.88;99784.59;5093519;27;20389;-71
2023/08/01 07:06:36;;;;;;;8.60;3.65;;;;;;;26.42;49.83;99783.31;5050029;28;20528;-72
2023/08/01 07:09:01;;;;;;;4.10;2.72;;;;;;;26.84;49.90;99781.59;5065235;28;20100;-71
2023/08/01 07:11:26;;;;;;;8.65;2.72;;;;;;;27.12;48.78;99786.78;5049975;28;20492;-72
2023/08/01 07:13:52;;;;;;;9.68;2.60;;;;;;;27.37;49.43;99785.31;5065264;28;20035;-71
2023/08/01 07:16:17;;;;;;;9.38;3.65;;;;;;;27.38;48.91;99789.72;5048931;28;20492;-71
2023/08/01 07:18:42;;;;;;;5.47;3.15;;;;;;;27.62;48.14;99791.00;5049825;28;20051;-73
2023/08/01 07:21:08;;;;;;;9.55;2.70;;;;;;;27.96;47.93;99786.81;5048593;28;20030;-73
2023/08/01 07:23:35;;;;;;;13.80;3.05;;;;;;;27.87;48.66;99788.41;5050080;28;20051;-71
2023/08/01 07:26:00;;;;;;;8.38;2.92;;;;;;;27.84;47.94;99794.44;5049843;28;20132;-71
2023/08/01 07:28:26;;;;;;;5.88;2.42;;;;;;;28.07;47.96;99788.53;5053323;28;20034;-73
2023/08/01 07:31:05;;;;;;;11.75;2.78;;;;;;;27.76;48.10;99797.72;5068114;28;20072;-72
2023/08/01 07:33:31;;;;;;;4.38;2.97;;;;;;;27.49;48.80;99794.25;5051138;28;20065;-71
2023/08/01 07:35:57;;;;;;;13.20;2.78;;;;;;;27.30;49.08;99798.47;5049815;28;20056;-72
2023/08/01 07:38:22;;;;;;;6.45;2.67;;;;;;;27.14;48.64;99806.59;5048721;28;20045;-71
2023/08/01 07:40:48;;;;;;;6.82;2.08;;;;;;;27.09;48.98;99808.47;5049729;28;20036;-71
2023/08/01 07:43:13;;;;;;;7.13;2.50;;;;;;;27.21;48.26;99802.78;5064729;28;20656;-71
2023/08/01 07:45:39;;;;;;;5.38;2.90;;;;;;;27.32;48.42;99801.78;5048186;28;20049;-71
2023/08/01 07:48:04;;;;;;;6.25;2.08;;;;;;;27.69;47.21;99803.44;5047835;28;20025;-72
2023/08/01 07:50:30;;;;;;;7.68;3.25;;;;;;;27.74;47.32;99799.91;5048019;28;20454;-73
2023/08/01 07:52:55;;;;;;;6.53;2.67;;;;;;;27.86;47.84;99803.28;5048255;28;20033;-72
2023/08/01 07:55:21;;;;;;;4.63;2.17;;;;;;;27.85;47.91;99807.13;5048814;28;20037;-71
2023/08/01 07:57:47;;;;;;;9.05;2.45;;;;;;;27.94;47.27;99805.53;5050533;28;20469;-71
2023/08/01 08:00:13;;;;;;;5.57;2.60;;;;;;;28.20;47.00;99800.97;5027865;28;20072;-72
2023/08/01 08:02:38;;;;;;;6.53;2.58;;;;;;;28.47;46.41;99809.06;5028189;28;20042;-72
2023/08/01 08:05:05;;;;;;;4.13;2.30;;;;;;;28.50;46.28;99808.53;5038789;28;20025;-71
2023/08/01 08:07:30;;;;;;;5.18;2.45;;;;;;;28.80;45.69;99816.91;5049008;28;20079;-71
2023/08/01 08:09:56;;;;;;;7.75;3.22;;;;;;;28.56;46.49;99813.78;5048602;28;20447;-71
2023/08/01 08:12:22;;;;;;;5.30;2.22;;;;;;;28.36;46.17;99815.66;5047576;28;20684;-71
2023/08/01 08:14:48;;;;;;;9.35;2.40;;;;;;;28.27;46.45;99816.19;5038595;28;20033;-71
2023/08/01 08:17:13;;;;;;;7.78;2.97;;;;;;;28.07;46.18;99821.59;5035465;28;20034;-72
2023/08/01 08:19:38;;;;;;;4.88;3.05;;;;;;;27.92;46.57;99824.22;5034177;28;20125;-71
2023/08/01 08:22:04;;;;;;;4.88;2.17;;;;;;;28.01;45.96;99822.63;5017570;28;20164;-67
2023/08/01 08:24:30;;;;;;;5.65;2.30;;;;;;;28.45;45.45;99830.56;5034267;28;20408;-66
2023/08/01 08:26:55;;;;;;;6.30;2.20;;;;;;;28.85;45.10;99833.44;5033833;28;20037;-66
2023/08/01 08:29:20;;;;;;;6.20;2.75;;;;;;;28.69;44.93;99832.59;5033666;28;20506;-67
2023/08/01 08:31:46;;;;;;;5.75;2.60;;;;;;;28.58;45.91;99827.28;5033885;28;20044;-67
2023/08/01 08:34:12;;;;;;;9.52;2.70;;;;;;;28.48;46.10;99832.75;5033899;28;20472;-67
2023/08/01 08:36:37;;;;;;;4.20;2.25;;;;;;;28.96;44.65;99829.59;5035261;28;20034;-67
2023/08/01 08:39:03;;;;;;;7.88;2.67;;;;;;;29.02;44.12;99827.69;5016903;28;20053;-67
2023/08/01 08:41:35;;;;;;;5.45;2.33;;;;;;;29.13;44.64;99829.34;5017623;28;20033;-67
2023/08/01 08:44:01;;;;;;;6.75;2.53;;;;;;;29.49;43.72;99819.16;5033929;28;20041;-67
2023/08/01 08:46:28;;;;;;;9.93;2.15;;;;;;;30.03;43.11;99811.91;5050203;28;20044;-68
2023/08/01 08:48:55;;;;;;;4.65;2.10;;;;;;;30.38;42.60;99813.72;5033670;28;20034;-68
2023/08/01 08:51:21;;;;;;;7.00;3.10;;;;;;;30.26;42.96;99802.97;5033414;28;20041;-67
2023/08/01 08:53:47;;;;;;;5.70;1.85;;;;;;;30.67;42.41;99800.00;5033616;28;20118;-67
2023/08/01 08:56:12;;;;;;;7.18;2.08;;;;;;;30.31;42.94;99808.47;5033458;28;20501;-67
2023/08/01 08:58:41;;;;;;;6.38;2.05;;;;;;;30.08;42.97;99808.28;5033676;28;20033;-67
2023/08/01 09:01:07;;;;;;;8.45;2.20;;;;;;;30.03;43.06;99798.09;5017375;28;20033;-67
2023/08/01 09:03:33;;;;;;;7.53;2.22;;;;;;;30.42;42.00;99815.63;5033149;28;20041;-67
2023/08/01 09:06:12;;;;;;;4.28;2.30;;;;;;;30.48;42.14;99813.66;5016824;28;20124;-67
2023/08/01 09:08:39;;;;;;;4.47;2.28;;;;;;;30.50;41.97;99817.81;5033209;28;20113;-67
2023/08/01 09:11:05;;;;;;;6.03;2.10;;;;;;;30.68;41.79;99823.78;5033160;28;20067;-66
2023/08/01 09:13:30;;;;;;;6.10;1.98;;;;;;;30.39;42.10;99832.78;5033104;28;20034;-66
2023/08/01 09:15:56;;;;;;;10.40;2.03;;;;;;;30.40;41.93;99825.31;5033158;28;20026;-66
2023/08/01 09:18:22;;;;;;;3.08;1.75;;;;;;;30.56;41.71;99816.66;5034427;28;20038;-67
2023/08/01 09:20:49;;;;;;;3.92;1.83;;;;;;;30.22;41.76;99818.44;5016613;28;20512;-67
2023/08/01 09:23:16;;;;;;;7.95;2.17;;;;;;;30.00;41.93;99817.97;5034230;28;20033;-66
2023/08/01 09:25:42;;;;;;;6.90;2.00;;;;;;;29.84;41.81;99827.44;5015566;28;20034;-66
2023/08/01 09:28:22;;;;;;;7.07;2.58;;;;;;;29.75;41.34;99826.31;5016561;28;20033;-66
2023/08/01 09:30:54;;;;;;;4.97;2.17;;;;;;;29.68;41.67;99831.28;5033090;28;20160;-70
2023/08/01 09:33:19;;;;;;;7.97;1.85;;;;;;;29.72;41.51;99824.09;5032555;28;20076;-70
2023/08/01 09:35:45;;;;;;;6.10;1.90;;;;;;;30.01;40.57;99823.22;5016536;28;20523;-70
2023/08/01 09:38:15;;;;;;;2.47;1.58;;;;;;;29.91;40.93;99814.13;5049912;28;20048;-71
2023/08/01 09:40:41;;;;;;;3.38;1.60;;;;;;;30.14;40.83;99809.91;5029249;28;20021;-70
2023/08/01 09:43:06;;;;;;;1.92;1.50;;;;;;;30.89;39.75;99822.53;5032977;28;20103;-71
2023/08/01 09:45:34;;;;;;;5.50;2.10;;;;;;;31.08;39.85;99818.00;5032942;28;20037;-71
2023/08/01 09:48:00;;;;;;;3.50;2.20;;;;;;;31.63;39.70;99814.75;5016608;28;20029;-71
2023/08/01 09:50:25;;;;;;;6.03;1.70;;;;;;;31.42;40.03;99821.59;5000112;28;20025;-69
2023/08/01 09:52:53;;;;;;;4.88;2.55;;;;;;;31.40;39.64;99820.25;5033973;28;20500;-69
2023/08/01 09:55:27;;;;;;;4.28;1.80;;;;;;;31.48;39.54;99817.69;5000161;28;20585;-70
2023/08/01 09:57:57;;;;;;;5.78;1.70;;;;;;;31.55;38.70;99826.47;5032562;28;20034;-69
2023/08/01 10:00:22;;;;;;;4.57;2.67;;;;;;;32.08;38.01;99832.88;4999744;28;20071;-69
2023/08/01 10:02:49;;;;;;;5.40;2.50;;;;;;;32.81;38.33;99819.47;4999192;28;20037;-69
2023/08/01 10:05:15;;;;;;;3.83;2.70;;;;;;;33.81;36.37;99810.59;5031826;28;20041;-70
2023/08/01 10:07:41;;;;;;;5.80;2.20;;;;;;;34.93;35.78;99798.75;5015197;28;20037;-70
2023/08/01 10:10:07;;;;;;;4.43;1.83;;;;;;;36.77;33.00;99819.41;5015857;28;20041;-70
2023/08/01 10:12:33;;;;;;;3.33;1.63;;;;;;;36.56;33.32;99799.69;5015383;28;20039;-70
2023/08/01 10:14:59;;;;;;;6.28;1.85;;;;;;;35.71;34.03;99802.94;5032335;28;20066;-69
2023/08/01 10:17:25;;;;;;;6.55;2.08;;;;;;;35.57;34.39;99818.94;5032035;28;20045;-69
2023/08/01 10:19:53;;;;;;;3.40;1.75;;;;;;;35.71;33.93;99811.31;5015707;28;20492;-71
2023/08/01 10:22:19;;;;;;;4.13;2.03;;;;;;;35.85;33.68;99814.03;5015835;28;20033;-71
2023/08/01 10:24:45;;;;;;;3.25;1.55;;;;;;;35.96;33.67;99809.81;5031947;28;20022;-73
2023/08/01 10:27:15;;;;;;;3.60;1.67;;;;;;;36.19;33.10;99803.84;5033105;28;20039;-71
2023/08/01 10:29:42;;;;;;;3.22;1.70;;;;;;;36.35;32.51;99806.19;5015372;28;20029;-72
2023/08/01 10:32:07;;;;;;;4.40;1.52;;;;;;;36.66;32.34;99809.69;5031877;28;20040;-72
2023/08/01 10:34:32;;;;;;;3.97;1.83;;;;;;;36.20;32.68;99816.66;5015297;28;20037;-71
2023/08/01 10:36:58;;;;;;;4.15;1.52;;;;;;;35.99;33.16;99809.97;5031602;28;20052;-72
2023/08/01 10:39:25;;;;;;;2.88;1.67;;;;;;;36.56;32.58;99801.66;5013140;28;20523;-71
2023/08/01 10:42:01;;;;;;;1.67;1.58;;;;;;;36.93;31.86;99801.03;5048360;28;20048;-70
2023/08/01 10:44:27;;;;;;;4.93;1.83;;;;;;;37.26;31.62;99815.34;5031589;28;20418;-72
2023/08/01 10:47:01;;;;;;;1.90;1.40;;;;;;;37.62;30.46;99807.41;5031801;28;20033;-70
2023/08/01 10:49:34;;;;;;;2.72;1.30;;;;;;;37.39;30.69;99805.09;5032559;28;20053;-70
2023/08/01 10:52:00;;;;;;;3.50;1.70;;;;;;;37.26;31.30;99810.56;5033123;28;20037;-72
2023/08/01 10:54:25;;;;;;;1.80;1.15;;;;;;;36.86;31.71;99819.41;5031702;28;20111;-70
2023/08/01 10:56:52;;;;;;;3.47;1.75;;;;;;;36.60;31.39;99808.25;5033224;28;20050;-73
2023/08/01 10:59:18;;;;;;;4.88;1.05;;;;;;;36.01;31.78;99813.28;5015487;28;20120;-72
2023/08/01 11:01:54;;;;;;;2.28;1.27;;;;;;;35.39;31.96;99829.13;5031359;28;20549;-70
2023/08/01 11:04:21;;;;;;;4.13;1.83;;;;;;;35.38;32.59;99827.47;5031725;28;20072;-71
2023/08/01 11:06:48;;;;;;;3.70;1.45;;;;;;;34.97;32.91;99827.63;5032815;28;20060;-72
2023/08/01 11:09:17;;;;;;;2.85;0.93;;;;;;;34.38;32.46;99834.22;5031527;28;20049;-73
2023/08/01 11:11:42;;;;;;;3.45;1.00;;;;;;;33.82;33.22;99839.22;5032655;28;20038;-72
2023/08/01 11:14:08;;;;;;;3.55;1.92;;;;;;;33.48;33.19;99845.06;5031388;28;20055;-73
2023/08/01 11:16:33;;;;;;;3.78;1.02;;;;;;;33.12;32.92;99852.34;5032498;28;20056;-72
2023/08/01 11:18:59;;;;;;;4.90;1.30;;;;;;;32.93;34.35;99843.16;5014818;28;20037;-72
2023/08/01 11:21:27;;;;;;;4.30;1.25;;;;;;;32.59;34.44;99841.41;5032681;28;20454;-71
2023/08/01 11:23:53;;;;;;;1.75;1.13;;;;;;;32.76;33.72;99841.75;5031221;28;20057;-72
2023/08/01 11:26:18;;;;;;;5.95;2.03;;;;;;;33.51;33.82;99849.19;5031233;28;20034;-71
2023/08/01 11:28:44;;;;;;;2.08;1.02;;;;;;;33.39;33.15;99847.72;5014650;28;20053;-71
2023/08/01 11:31:13;;;;;;;3.05;1.42;;;;;;;33.32;33.87;99840.91;5031411;28;20557;-71